Buoy 46930

sailwx.info

Track history (hours):
 
Tides and Currents Weather Stations Pressure Air Temp Water Temp Dewpoint Dewpoint Depression Visibility Wind Speed Wind Dir Waves Ship Positions

Drifting buoy 46930

Last reported at 2014-Sep-19 12:00 UTC. Time now 2014-Sep-19 13:54 UTC.
Position N 22°40' W 118°30'.

Water temperature 25.7 ° C

Date/timePositionNaut miles runAvg speedWind from/ knotsBaromVisibWave heightAir tempDewpointWater temp
2014-Sep-19 12:00N 22°40' W 118°30'1 0.5 25.7
2014-Sep-19 11:00N 22°39' W 118°30'2 0.4 25.7
2014-Sep-19 06:00N 22°37' W 118°30'0 0.1 25.8
2014-Sep-19 05:00N 22°37' W 118°30'1 0.3 25.8
2014-Sep-19 03:00N 22°37' W 118°29'1 0.3 25.9
2014-Sep-19 01:00N 22°38' W 118°29'0 0.0 25.9
2014-Sep-18 23:00N 22°38' W 118°29'1 0.3 26.0
2014-Sep-18 21:00N 22°38' W 118°29'1 0.5 26.1
2014-Sep-18 19:00N 22°39' W 118°30'0 0.1 25.9
2014-Sep-18 18:00N 22°39' W 118°30'1 0.7 25.8
2014-Sep-18 16:00N 22°39' W 118°32'2 0.7 25.7
2014-Sep-18 13:00N 22°39' W 118°34'0 0.5 25.6
2014-Sep-18 12:00N 22°39' W 118°34'3 0.4 25.6
2014-Sep-18 04:00N 22°36' W 118°34'0 0.2 25.7
2014-Sep-18 02:00N 22°36' W 118°34'1 1.1 25.8
2014-Sep-18 01:00N 22°37' W 118°33'0 0.1 25.8
2014-Sep-18 00:00N 22°37' W 118°33'2 1.5 25.9
2014-Sep-17 23:00N 22°37' W 118°34'0 0.0 25.9
2014-Sep-17 22:00N 22°37' W 118°34'1 0.9 25.9
2014-Sep-17 21:00N 22°38' W 118°33'2 0.7 25.8
2014-Sep-17 18:00N 22°38' W 118°35'2 1.1 25.6
2014-Sep-17 16:00N 22°37' W 118°37'1 0.4 25.6
2014-Sep-17 13:00N 22°38' W 118°38'1 0.5 25.6
2014-Sep-17 11:00N 22°37' W 118°39'0 0.5 25.6
2014-Sep-17 10:00N 22°37' W 118°38'1 0.4 25.6
2014-Sep-17 08:00N 22°36' W 118°39'1 0.6 25.6
2014-Sep-17 06:00N 22°35' W 118°38'1 0.3 25.6
2014-Sep-17 03:00N 22°36' W 118°37'2 0.5 25.7
2014-Sep-16 23:00N 22°38' W 118°37'1 0.7 25.7
2014-Sep-16 22:00N 22°38' W 118°38'1 1.0 25.7
2014-Sep-16 21:00N 22°37' W 118°39'1 0.3 25.7
2014-Sep-16 19:00N 22°38' W 118°39'0 0.3 25.7
2014-Sep-16 18:00N 22°38' W 118°39'0 0.3 25.6
2014-Sep-16 17:00N 22°38' W 118°39'1 0.6 25.6
2014-Sep-16 16:00N 22°38' W 118°40'0 0.0 25.6
2014-Sep-16 15:00N 22°38' W 118°40'0 0.4 25.6
2014-Sep-16 14:00N 22°38' W 118°40'1 0.1 25.6
2014-Sep-16 10:00N 22°38' W 118°41'0 0.2 25.6
2014-Sep-16 08:00N 22°37' W 118°41'1 1.3 25.6
2014-Sep-16 07:00N 22°36' W 118°42'1 0.3 25.6
2014-Sep-16 04:00N 22°37' W 118°41'0 0.0 25.6
2014-Sep-16 03:00N 22°37' W 118°41'1 0.5 25.6
2014-Sep-16 02:00N 22°37' W 118°40'0 0.1 25.7
2014-Sep-16 00:00N 22°37' W 118°41'1 0.3 25.7
2014-Sep-15 22:00N 22°38' W 118°41'1 0.2 25.7
2014-Sep-15 19:00N 22°38' W 118°41'0 0.2 25.7
2014-Sep-15 18:00N 22°38' W 118°41'1 0.5 25.6
2014-Sep-15 16:00N 22°39' W 118°41'1 0.3 25.6
2014-Sep-15 14:00N 22°40' W 118°40'2 1.0 25.6
2014-Sep-15 12:00N 22°40' W 118°43'2 0.4 25.6
2014-Sep-15 06:00N 22°38' W 118°44'0 0.2 25.7
2014-Sep-15 05:00N 22°38' W 118°44'1 0.4 25.7
2014-Sep-15 03:00N 22°39' W 118°43'1 0.6 25.7
2014-Sep-15 02:00N 22°38' W 118°43'1 0.4 25.8
2014-Sep-15 00:00N 22°39' W 118°43'0 0.2 25.8
2014-Sep-14 22:00N 22°39' W 118°43'0 0.5 25.8
2014-Sep-14 21:00N 22°39' W 118°43'0 0.2 25.8
2014-Sep-14 20:00N 22°39' W 118°43'0 0.0 25.7
2014-Sep-14 18:00N 22°39' W 118°43'0 0.4 25.6
2014-Sep-14 17:00N 22°39' W 118°44'0 0.1 25.6
2014-Sep-14 16:00N 22°39' W 118°44'1 0.4 25.6
2014-Sep-14 13:00N 22°40' W 118°43'1 0.6 25.7
2014-Sep-14 12:00N 22°40' W 118°44'0 0.2 25.7
2014-Sep-14 11:00N 22°40' W 118°43'1 0.3 25.7
2014-Sep-14 09:00N 22°40' W 118°44'1 0.2 25.7
2014-Sep-14 06:00N 22°40' W 118°44'0 0.1 25.7
2014-Sep-14 04:00N 22°39' W 118°44'0 0.2 25.8
2014-Sep-14 02:00N 22°40' W 118°44'0 0.4 25.8
2014-Sep-14 01:00N 22°40' W 118°44'0 0.2 25.8
2014-Sep-14 00:00N 22°40' W 118°44'0 0.3 25.9
2014-Sep-13 23:00N 22°41' W 118°45'1 0.8 25.9
2014-Sep-13 22:00N 22°41' W 118°45'0 0.0 25.9
2014-Sep-13 21:00N 22°41' W 118°45'0 0.2 25.9
2014-Sep-13 20:00N 22°41' W 118°45'0 0.1 25.8
2014-Sep-13 18:00N 22°41' W 118°45'0 0.0 25.8
2014-Sep-13 17:00N 22°41' W 118°45'0 0.1 25.7
2014-Sep-13 14:00N 22°41' W 118°46'0 0.4 25.7
2014-Sep-13 13:00N 22°41' W 118°46'0 0.1 25.7
2014-Sep-13 11:00N 22°41' W 118°46'1 0.1 25.8
2014-Sep-13 05:00N 22°40' W 118°46'1 1.4 25.9
2014-Sep-13 04:00N 22°41' W 118°45'0 0.1 25.9
2014-Sep-13 01:00N 22°41' W 118°45'1 0.4 26.0
2014-Sep-12 22:00N 22°42' W 118°46'2 0.4 26.0
2014-Sep-12 18:00N 22°42' W 118°47'0 0.4 25.9
2014-Sep-12 17:00N 22°42' W 118°48'1 1.2 25.8
2014-Sep-12 16:00N 22°42' W 118°49'0 0.0 25.8
2014-Sep-12 15:00N 22°42' W 118°49'0 0.0 25.9
2014-Sep-12 14:00N 22°42' W 118°49'1 0.8 25.9
2014-Sep-12 13:00N 22°41' W 118°49'0 0.0 25.9
2014-Sep-12 12:00N 22°41' W 118°49'0 0.2 26.0
2014-Sep-12 11:00N 22°41' W 118°49'2 0.4 26.0
2014-Sep-12 06:00N 22°41' W 118°47'0 0.1 26.0
2014-Sep-12 05:00N 22°41' W 118°47'1 0.4 26.1
2014-Sep-12 03:00N 22°42' W 118°47'1 0.4 26.1
2014-Sep-12 01:00N 22°42' W 118°48'0 0.4 26.4
2014-Sep-12 00:00N 22°42' W 118°48'1 0.6 26.6
2014-Sep-11 23:00N 22°42' W 118°48'0 0.1 26.7
2014-Sep-11 22:00N 22°42' W 118°48'2 0.6 26.6
2014-Sep-11 19:00N 22°44' W 118°48'1 1.2 26.1
2014-Sep-11 18:00N 22°44' W 118°50'0 0.2 26.1
2014-Sep-11 17:00N 22°44' W 118°50'1 1.1 26.0
2014-Sep-11 16:00N 22°43' W 118°51'0 0.0 26.0
2014-Sep-11 15:00N 22°43' W 118°51'1 0.9 25.9
2014-Sep-11 14:00N 22°43' W 118°51'1 0.2 25.9
2014-Sep-11 05:00N 22°42' W 118°53'1 0.4 26.2
2014-Sep-11 03:00N 22°42' W 118°52'0 0.4 26.4
2014-Sep-11 02:00N 22°41' W 118°53'0 0.1 26.7
2014-Sep-10 23:00N 22°41' W 118°52'0 0.2 27.0
2014-Sep-10 22:00N 22°42' W 118°52'1 0.5 27.2
2014-Sep-10 19:00N 22°43' W 118°51'1 0.3 26.6
2014-Sep-10 16:00N 22°44' W 118°51'4 0.4 25.7
2014-Sep-10 06:00N 22°46' W 118°55'2 0.6 25.8
2014-Sep-10 03:00N 22°45' W 118°56'1 0.8 26.0
2014-Sep-10 02:00N 22°44' W 118°57'0 0.1 26.1
2014-Sep-10 01:00N 22°44' W 118°56'0 0.2 26.2
2014-Sep-09 23:00N 22°44' W 118°56'1 0.2 26.4
2014-Sep-09 16:00N 22°43' W 118°55'0 0.0 25.6
2014-Sep-09 15:00N 22°43' W 118°55'   25.5
Track history (hours):
 
Tides and Currents Weather Stations Pressure Air Temp Water Temp Dewpoint Dewpoint Depression Visibility Wind Speed Wind Dir Waves Ship Positions

Drifting buoy 46930

Last reported at 2014-Sep-19 12:00 UTC. Time now 2014-Sep-19 13:54 UTC.
Position N 22°40' W 118°30'.

Water temperature 25.7 ° C

Date/timePositionNaut miles runAvg speedWind from/ knotsBaromVisibWave heightAir tempDewpointWater temp
2014-Sep-19 12:00N 22°40' W 118°30'1 0.5 25.7
2014-Sep-19 11:00N 22°39' W 118°30'2 0.4 25.7
2014-Sep-19 06:00N 22°37' W 118°30'0 0.1 25.8
2014-Sep-19 05:00N 22°37' W 118°30'1 0.3 25.8
2014-Sep-19 03:00N 22°37' W 118°29'1 0.3 25.9
2014-Sep-19 01:00N 22°38' W 118°29'0 0.0 25.9
2014-Sep-18 23:00N 22°38' W 118°29'1 0.3 26.0
2014-Sep-18 21:00N 22°38' W 118°29'1 0.5 26.1
2014-Sep-18 19:00N 22°39' W 118°30'0 0.1 25.9
2014-Sep-18 18:00N 22°39' W 118°30'1 0.7 25.8
2014-Sep-18 16:00N 22°39' W 118°32'2 0.7 25.7
2014-Sep-18 13:00N 22°39' W 118°34'0 0.5 25.6
2014-Sep-18 12:00N 22°39' W 118°34'3 0.4 25.6
2014-Sep-18 04:00N 22°36' W 118°34'0 0.2 25.7
2014-Sep-18 02:00N 22°36' W 118°34'1 1.1 25.8
2014-Sep-18 01:00N 22°37' W 118°33'0 0.1 25.8
2014-Sep-18 00:00N 22°37' W 118°33'2 1.5 25.9
2014-Sep-17 23:00N 22°37' W 118°34'0 0.0 25.9
2014-Sep-17 22:00N 22°37' W 118°34'1 0.9 25.9
2014-Sep-17 21:00N 22°38' W 118°33'2 0.7 25.8
2014-Sep-17 18:00N 22°38' W 118°35'2 1.1 25.6
2014-Sep-17 16:00N 22°37' W 118°37'1 0.4 25.6
2014-Sep-17 13:00N 22°38' W 118°38'1 0.5 25.6
2014-Sep-17 11:00N 22°37' W 118°39'0 0.5 25.6
2014-Sep-17 10:00N 22°37' W 118°38'1 0.4 25.6
2014-Sep-17 08:00N 22°36' W 118°39'1 0.6 25.6
2014-Sep-17 06:00N 22°35' W 118°38'1 0.3 25.6
2014-Sep-17 03:00N 22°36' W 118°37'2 0.5 25.7
2014-Sep-16 23:00N 22°38' W 118°37'1 0.7 25.7
2014-Sep-16 22:00N 22°38' W 118°38'1 1.0 25.7
2014-Sep-16 21:00N 22°37' W 118°39'1 0.3 25.7
2014-Sep-16 19:00N 22°38' W 118°39'0 0.3 25.7
2014-Sep-16 18:00N 22°38' W 118°39'0 0.3 25.6
2014-Sep-16 17:00N 22°38' W 118°39'1 0.6 25.6
2014-Sep-16 16:00N 22°38' W 118°40'0 0.0 25.6
2014-Sep-16 15:00N 22°38' W 118°40'0 0.4 25.6
2014-Sep-16 14:00N 22°38' W 118°40'1 0.1 25.6
2014-Sep-16 10:00N 22°38' W 118°41'0 0.2 25.6
2014-Sep-16 08:00N 22°37' W 118°41'1 1.3 25.6
2014-Sep-16 07:00N 22°36' W 118°42'1 0.3 25.6
2014-Sep-16 04:00N 22°37' W 118°41'0 0.0 25.6
2014-Sep-16 03:00N 22°37' W 118°41'1 0.5 25.6
2014-Sep-16 02:00N 22°37' W 118°40'0 0.1 25.7
2014-Sep-16 00:00N 22°37' W 118°41'1 0.3 25.7
2014-Sep-15 22:00N 22°38' W 118°41'1 0.2 25.7
2014-Sep-15 19:00N 22°38' W 118°41'0 0.2 25.7
2014-Sep-15 18:00N 22°38' W 118°41'1 0.5 25.6
2014-Sep-15 16:00N 22°39' W 118°41'1 0.3 25.6
2014-Sep-15 14:00N 22°40' W 118°40'2 1.0 25.6
2014-Sep-15 12:00N 22°40' W 118°43'2 0.4 25.6
2014-Sep-15 06:00N 22°38' W 118°44'0 0.2 25.7
2014-Sep-15 05:00N 22°38' W 118°44'1 0.4 25.7
2014-Sep-15 03:00N 22°39' W 118°43'1 0.6 25.7
2014-Sep-15 02:00N 22°38' W 118°43'1 0.4 25.8
2014-Sep-15 00:00N 22°39' W 118°43'0 0.2 25.8
2014-Sep-14 22:00N 22°39' W 118°43'0 0.5 25.8
2014-Sep-14 21:00N 22°39' W 118°43'0 0.2 25.8
2014-Sep-14 20:00N 22°39' W 118°43'0 0.0 25.7
2014-Sep-14 18:00N 22°39' W 118°43'0 0.4 25.6
2014-Sep-14 17:00N 22°39' W 118°44'0 0.1 25.6
2014-Sep-14 16:00N 22°39' W 118°44'1 0.4 25.6
2014-Sep-14 13:00N 22°40' W 118°43'1 0.6 25.7
2014-Sep-14 12:00N 22°40' W 118°44'0 0.2 25.7
2014-Sep-14 11:00N 22°40' W 118°43'1 0.3 25.7
2014-Sep-14 09:00N 22°40' W 118°44'1 0.2 25.7
2014-Sep-14 06:00N 22°40' W 118°44'0 0.1 25.7
2014-Sep-14 04:00N 22°39' W 118°44'0 0.2 25.8
2014-Sep-14 02:00N 22°40' W 118°44'0 0.4 25.8
2014-Sep-14 01:00N 22°40' W 118°44'0 0.2 25.8
2014-Sep-14 00:00N 22°40' W 118°44'0 0.3 25.9
2014-Sep-13 23:00N 22°41' W 118°45'1 0.8 25.9
2014-Sep-13 22:00N 22°41' W 118°45'0 0.0 25.9
2014-Sep-13 21:00N 22°41' W 118°45'0 0.2 25.9
2014-Sep-13 20:00N 22°41' W 118°45'0 0.1 25.8
2014-Sep-13 18:00N 22°41' W 118°45'0 0.0 25.8
2014-Sep-13 17:00N 22°41' W 118°45'0 0.1 25.7
2014-Sep-13 14:00N 22°41' W 118°46'0 0.4 25.7
2014-Sep-13 13:00N 22°41' W 118°46'0 0.1 25.7
2014-Sep-13 11:00N 22°41' W 118°46'1 0.1 25.8
2014-Sep-13 05:00N 22°40' W 118°46'1 1.4 25.9
2014-Sep-13 04:00N 22°41' W 118°45'0 0.1 25.9
2014-Sep-13 01:00N 22°41' W 118°45'1 0.4 26.0
2014-Sep-12 22:00N 22°42' W 118°46'2 0.4 26.0
2014-Sep-12 18:00N 22°42' W 118°47'0 0.4 25.9
2014-Sep-12 17:00N 22°42' W 118°48'1 1.2 25.8
2014-Sep-12 16:00N 22°42' W 118°49'0 0.0 25.8
2014-Sep-12 15:00N 22°42' W 118°49'0 0.0 25.9
2014-Sep-12 14:00N 22°42' W 118°49'1 0.8 25.9
2014-Sep-12 13:00N 22°41' W 118°49'0 0.0 25.9
2014-Sep-12 12:00N 22°41' W 118°49'0 0.2 26.0
2014-Sep-12 11:00N 22°41' W 118°49'2 0.4 26.0
2014-Sep-12 06:00N 22°41' W 118°47'0 0.1 26.0
2014-Sep-12 05:00N 22°41' W 118°47'1 0.4 26.1
2014-Sep-12 03:00N 22°42' W 118°47'1 0.4 26.1
2014-Sep-12 01:00N 22°42' W 118°48'0 0.4 26.4
2014-Sep-12 00:00N 22°42' W 118°48'1 0.6 26.6
2014-Sep-11 23:00N 22°42' W 118°48'0 0.1 26.7
2014-Sep-11 22:00N 22°42' W 118°48'2 0.6 26.6
2014-Sep-11 19:00N 22°44' W 118°48'1 1.2 26.1
2014-Sep-11 18:00N 22°44' W 118°50'0 0.2 26.1
2014-Sep-11 17:00N 22°44' W 118°50'1 1.1 26.0
2014-Sep-11 16:00N 22°43' W 118°51'0 0.0 26.0
2014-Sep-11 15:00N 22°43' W 118°51'1 0.9 25.9
2014-Sep-11 14:00N 22°43' W 118°51'1 0.2 25.9
2014-Sep-11 05:00N 22°42' W 118°53'1 0.4 26.2
2014-Sep-11 03:00N 22°42' W 118°52'0 0.4 26.4
2014-Sep-11 02:00N 22°41' W 118°53'0 0.1 26.7
2014-Sep-10 23:00N 22°41' W 118°52'0 0.2 27.0
2014-Sep-10 22:00N 22°42' W 118°52'1 0.5 27.2
2014-Sep-10 19:00N 22°43' W 118°51'1 0.3 26.6
2014-Sep-10 16:00N 22°44' W 118°51'4 0.4 25.7
2014-Sep-10 06:00N 22°46' W 118°55'2 0.6 25.8
2014-Sep-10 03:00N 22°45' W 118°56'1 0.8 26.0
2014-Sep-10 02:00N 22°44' W 118°57'0 0.1 26.1
2014-Sep-10 01:00N 22°44' W 118°56'0 0.2 26.2
2014-Sep-09 23:00N 22°44' W 118°56'1 0.2 26.4
2014-Sep-09 16:00N 22°43' W 118°55'0 0.0 25.6
2014-Sep-09 15:00N 22°43' W 118°55'   25.5

Dump ship's entire track history